Portada
METAR-TAF:

METAR-TAF

Aeroports :

Mogadixo, Somàlia

latitud: 02-02N, longitud: 045-21E, altitud: 9 m

Observació

L'informe es va fer fa 31 minuts, a les 12:00 UTC
Vent 15 kt del Sud
Temperatura 30°C
Humitat 66%
Pressió 1010 hPa
Visibilitat 10 km o més
Núvols disperses a una alçada de 2600 ft

METAR: HCMM 251200Z 19015KT 9999 SCT026 30/23 Q1010

Hora: 15:31 (12:31 UTC)


TAF: manca

Observacions i pronòstics meteorològics de més de 4000 aeroports (METAR i TAF).

Les estacions disponibles són els punts grocs i vermells al mapa.

Posi el ratolí al punt desitjat per veure el nom de l'estació.

Feu clic per veure les observacions i els pronòstics meteorològics.

Per canviar el mapa: feu clic els botons verds amb una creu de color negre per apropar; al botó verd amb un guió per allunyar la imatge; o en les fletxes verdes per a mapes adjacents.


METAR-TAF: